Aérodrome :
LOGIN :

S'inscrire | Disclaimer

   EN    FR    IT 

 










Légende :    VFR   VFR Marginal   IFR   IFR Intensif   IFR Très Intensif
Visi : 
Plafond : 
>= 8 km
>= 3000ft
5 à 8 km
1000 à 3000 ft
1500m à 5 km
500 à 1000 ft
800 à 1500m
200 à 500 ft
< 800m
< 200 ft
Symboles :   Orages  Brouillard  Fortes neiges  Fortes précipitations  Vent > 20 kt
SIGMETs :   Divers  Orages  Givrage  Turbulence  Onde Orograph.  Cendres Volcan.







- Altitude de l'aérodrome : 195 ft
- Voir les cartes d'approche


LFMY - Salon de Provence

DERNIER METAR :
  • 202230Z AUTO 33007KT 300V360 CAVOK 23/14 Q1014

METARs EXPIRÉS :
  • 202200Z AUTO 34008KT CAVOK 23/14 Q1014
  • 202130Z AUTO 34008KT CAVOK 23/14 Q1014
  • 202100Z AUTO 28005KT 230V320 CAVOK 24/15 Q1014
  • 202030Z AUTO 00000KT CAVOK 24/16 Q1013
  • 202000Z AUTO 26004KT 220V360 CAVOK 25/17 Q1013

TAF TAF LFMY
Valide du 20 à 15h jusqu'au 21 à 15h UTC


201400Z 2015/2115 30010KT CAVOK
BECMG 2018/2020 VRB03KT
FM210500 04006KT CAVOK
BECMG 2107/2109 20010KT
Pas de NOTAMs connus pour ce terrain.
3 SIGMETs publiés pour la FIR Marseille (LFMM) :
 
Orages noyés dans la masse
LFMM SIGMET 7 VALID 202100/202300 LFPW
LFMM MARSEILLE FIR/UIR EMBD TS OBS WI N4400 E00245 - N4445 E00245 - N4515 E00315 - N4530 E00400 - N4345 E00415 - N4400 E00245 TOP FL360 MOV NE 15KT NC=
Annulation du SIGMET 5 
LFMM SIGMET 6 VALID 202105/202300 LFPW
LFMM MARSEILLE FIR/UIR CNL SIGMET 5 202100/202300=
SIGMET 5  ANNULÉ :
Turbulence forte
LFMM SIGMET 5 VALID 202100/202300 LFPW
LFMM MARSEILLE FIR/UIR SEV TURB OBS WI N4400 E00245 - N4445 E00245 - N4515 E00315 - N4530 E00400 - N4345 E00415 - N4400 E00245 SFC/FL360 MOV NE 15KT NC=



MET'MAP, la Météo Aéronautique d'un coup d'oeil ! - Copyright ORBIFLY Décembre 2007 - Disclaimer

ORBIFLY MET'MAP TEAM :

Programmation & Développement : Alexandra Zaïnal
Conception & Développement : Baudouin d'Aumeries
Co-Programmation & Développement : Marc-Olivier Méhu
Soutien technique & logistique : Manuel Goepfert

Contact : metmap@orbifly.com




SOURCES & CREDITS :

   NOAA